Terminal Aerodrome Forecast
Issued by NWS

Home | Current Version | Previous Version | Text Only | Print | Product List | Glossary On
Versions: 1 2 3 4 5 6 7 8 9 10 11 12 13 14 15 16 17 18 19 20 21 22 23 24 25 26 27 28
000
FTUS43 KDLH 191400 AAA
TAFBRD
TAF AMD
KBRD 191451Z 1915/2012 22010KT P6SM VCSH SCT025 BKN060
      TEMPO 1915/1918 25010KT BKN025
     FM191800 27012KT P6SM SCT050
     FM200000 22004KT P6SM FEW120
      TEMPO 2008/2012 2SM BR SCT008=

USA.gov is the U.S. government's official web portal to all federal, state and local government web resources and services.